sensor_id;sensor_type;location;lat;lon;timestamp;pressure;altitude;pressure_sealevel;temperature;humidity
73952;BME280;62304;47.662;18.324;2023-07-24T00:02:38;99940.06;;;23.65;77.08
73952;BME280;62304;47.662;18.324;2023-07-24T00:05:41;99927.16;;;23.64;77.27
73952;BME280;62304;47.662;18.324;2023-07-24T00:08:44;99927.94;;;23.64;77.54
73952;BME280;62304;47.662;18.324;2023-07-24T00:11:47;99921.22;;;23.71;77.10
73952;BME280;62304;47.662;18.324;2023-07-24T00:14:52;99914.59;;;23.74;77.37
73952;BME280;62304;47.662;18.324;2023-07-24T00:17:55;99915.88;;;23.82;77.09
73952;BME280;62304;47.662;18.324;2023-07-24T00:20:58;99913.34;;;23.84;76.92
73952;BME280;62304;47.662;18.324;2023-07-24T00:24:01;99915.88;;;23.82;77.09
73952;BME280;62304;47.662;18.324;2023-07-24T00:27:04;99905.53;;;23.88;77.02
73952;BME280;62304;47.662;18.324;2023-07-24T00:30:08;99908.34;;;23.88;76.90
73952;BME280;62304;47.662;18.324;2023-07-24T00:33:11;99903.13;;;23.86;77.29
73952;BME280;62304;47.662;18.324;2023-07-24T00:36:14;99907.09;;;23.89;77.37
73952;BME280;62304;47.662;18.324;2023-07-24T00:39:17;99904.09;;;23.92;77.34
73952;BME280;62304;47.662;18.324;2023-07-24T00:42:20;99900.81;;;23.94;77.17
73952;BME280;62304;47.662;18.324;2023-07-24T00:45:23;99898.75;;;23.94;77.27
73952;BME280;62304;47.662;18.324;2023-07-24T00:48:28;99901.09;;;23.96;77.52
73952;BME280;62304;47.662;18.324;2023-07-24T00:51:31;99901.59;;;24.03;77.11
73952;BME280;62304;47.662;18.324;2023-07-24T00:54:36;99894.19;;;23.97;77.52
73952;BME280;62304;47.662;18.324;2023-07-24T00:57:40;99903.63;;;23.94;77.81
73952;BME280;62304;47.662;18.324;2023-07-24T01:00:43;99898.12;;;23.90;78.33
73952;BME280;62304;47.662;18.324;2023-07-24T01:03:46;99903.00;;;23.99;77.54
73952;BME280;62304;47.662;18.324;2023-07-24T01:06:49;99893.87;;;23.95;77.98
73952;BME280;62304;47.662;18.324;2023-07-24T01:09:52;99907.41;;;23.91;78.49
73952;BME280;62304;47.662;18.324;2023-07-24T01:13:05;99893.69;;;23.80;79.15
73952;BME280;62304;47.662;18.324;2023-07-24T01:16:14;99891.19;;;23.91;78.14
73952;BME280;62304;47.662;18.324;2023-07-24T01:19:36;99903.63;;;23.94;78.13
73952;BME280;62304;47.662;18.324;2023-07-24T01:26:09;99900.16;;;23.90;78.37
73952;BME280;62304;47.662;18.324;2023-07-24T01:29:13;99902.34;;;23.77;79.14
73952;BME280;62304;47.662;18.324;2023-07-24T01:32:18;99899.81;;;23.70;79.27
73952;BME280;62304;47.662;18.324;2023-07-24T01:35:25;99902.66;;;23.70;79.21
73952;BME280;62304;47.662;18.324;2023-07-24T01:38:31;99907.03;;;23.62;79.69
73952;BME280;62304;47.662;18.324;2023-07-24T01:41:36;99910.16;;;23.55;80.10
73952;BME280;62304;47.662;18.324;2023-07-24T01:44:39;99910.16;;;23.55;80.15
73952;BME280;62304;47.662;18.324;2023-07-24T01:47:42;99896.94;;;23.52;80.91
73952;BME280;62304;47.662;18.324;2023-07-24T01:50:45;99897.56;;;23.56;80.13
73952;BME280;62304;47.662;18.324;2023-07-24T01:53:48;99892.09;;;23.61;79.81
73952;BME280;62304;47.662;18.324;2023-07-24T01:56:52;99897.75;;;23.61;79.83
73952;BME280;62304;47.662;18.324;2023-07-24T01:59:55;99891.75;;;23.59;80.16
73952;BME280;62304;47.662;18.324;2023-07-24T02:02:58;99893.66;;;23.62;80.04
73952;BME280;62304;47.662;18.324;2023-07-24T02:06:02;99893.34;;;23.69;80.03
73952;BME280;62304;47.662;18.324;2023-07-24T02:09:04;99892.25;;;23.67;80.12
73952;BME280;62304;47.662;18.324;2023-07-24T02:12:08;99886.87;;;23.69;79.92
73952;BME280;62304;47.662;18.324;2023-07-24T02:15:10;99892.25;;;23.67;80.18
73952;BME280;62304;47.662;18.324;2023-07-24T02:18:14;99890.66;;;23.66;80.22
73952;BME280;62304;47.662;18.324;2023-07-24T02:21:17;99889.41;;;23.67;80.33
73952;BME280;62304;47.662;18.324;2023-07-24T02:24:21;99894.78;;;23.65;80.23
73952;BME280;62304;47.662;18.324;2023-07-24T02:27:26;99895.37;;;23.69;80.06
73952;BME280;62304;47.662;18.324;2023-07-24T02:30:32;99895.69;;;23.62;80.40
73952;BME280;62304;47.662;18.324;2023-07-24T02:33:34;99884.97;;;23.48;81.28
73952;BME280;62304;47.662;18.324;2023-07-24T02:36:38;99889.84;;;23.47;81.19
73952;BME280;62304;47.662;18.324;2023-07-24T02:39:42;99880.56;;;23.47;80.92
73952;BME280;62304;47.662;18.324;2023-07-24T02:42:45;99881.16;;;23.33;81.63
73952;BME280;62304;47.662;18.324;2023-07-24T02:45:48;99878.91;;;23.19;82.39
73952;BME280;62304;47.662;18.324;2023-07-24T02:48:52;99878.13;;;23.18;82.65
73952;BME280;62304;47.662;18.324;2023-07-24T02:51:55;99868.84;;;23.18;82.70
73952;BME280;62304;47.662;18.324;2023-07-24T02:54:58;99875.47;;;23.24;82.65
73952;BME280;62304;47.662;18.324;2023-07-24T02:58:01;99873.44;;;23.24;82.48
73952;BME280;62304;47.662;18.324;2023-07-24T03:01:05;99874.69;;;23.23;82.43
73952;BME280;62304;47.662;18.324;2023-07-24T03:04:11;99871.22;;;23.19;82.61
73952;BME280;62304;47.662;18.324;2023-07-24T03:07:14;99868.25;;;23.23;82.80
73952;BME280;62304;47.662;18.324;2023-07-24T03:10:17;99866.03;;;23.18;82.86
73952;BME280;62304;47.662;18.324;2023-07-24T03:13:20;99868.38;;;23.19;82.84
73952;BME280;62304;47.662;18.324;2023-07-24T03:16:23;99867.41;;;23.13;83.39
73952;BME280;62304;47.662;18.324;2023-07-24T03:19:26;99866.81;;;23.18;83.46
73952;BME280;62304;47.662;18.324;2023-07-24T03:22:29;99859.97;;;23.07;83.63
73952;BME280;62304;47.662;18.324;2023-07-24T03:25:32;99856.19;;;23.01;84.51
73952;BME280;62304;47.662;18.324;2023-07-24T03:28:38;99858.06;;;22.95;84.39
73952;BME280;62304;47.662;18.324;2023-07-24T03:31:41;99854.91;;;22.93;84.61
73952;BME280;62304;47.662;18.324;2023-07-24T03:34:44;99851.88;;;22.87;85.14
73952;BME280;62304;47.662;18.324;2023-07-24T03:37:47;99854.56;;;22.91;84.15
73952;BME280;62304;47.662;18.324;2023-07-24T03:40:50;99856.78;;;22.87;84.65
73952;BME280;62304;47.662;18.324;2023-07-24T03:43:53;99860.81;;;22.77;85.29
73952;BME280;62304;47.662;18.324;2023-07-24T03:46:55;99860.75;;;22.68;86.23
73952;BME280;62304;47.662;18.324;2023-07-24T03:49:59;99861.81;;;22.61;86.90
73952;BME280;62304;47.662;18.324;2023-07-24T03:53:04;99873.25;;;22.58;87.04
73952;BME280;62304;47.662;18.324;2023-07-24T03:56:08;99873.25;;;22.58;87.39
73952;BME280;62304;47.662;18.324;2023-07-24T03:59:10;99867.59;;;22.58;87.48
73952;BME280;62304;47.662;18.324;2023-07-24T04:02:14;99874.06;;;22.58;87.42
73952;BME280;62304;47.662;18.324;2023-07-24T04:05:17;99875.19;;;22.61;87.75
73952;BME280;62304;47.662;18.324;2023-07-24T04:08:20;99875.78;;;22.56;88.74
73952;BME280;62304;47.662;18.324;2023-07-24T04:11:23;99887.75;;;22.60;88.67
73952;BME280;62304;47.662;18.324;2023-07-24T04:14:26;99876.91;;;22.67;87.40
73952;BME280;62304;47.662;18.324;2023-07-24T04:17:30;99876.97;;;22.76;87.58
73952;BME280;62304;47.662;18.324;2023-07-24T04:20:34;99874.00;;;22.80;87.24
73952;BME280;62304;47.662;18.324;2023-07-24T04:23:38;99873.09;;;22.83;87.12
73952;BME280;62304;47.662;18.324;2023-07-24T04:26:41;99871.84;;;22.84;86.85
73952;BME280;62304;47.662;18.324;2023-07-24T04:29:45;99869.00;;;22.84;87.04
73952;BME280;62304;47.662;18.324;2023-07-24T04:32:48;99871.53;;;22.82;87.28
73952;BME280;62304;47.662;18.324;2023-07-24T04:35:53;99864.00;;;22.88;86.96
73952;BME280;62304;47.662;18.324;2023-07-24T04:38:56;99868.72;;;22.91;86.99
73952;BME280;62304;47.662;18.324;2023-07-24T04:42:00;99870.63;;;22.94;86.88
73952;BME280;62304;47.662;18.324;2023-07-24T04:45:03;99873.75;;;22.96;87.19
73952;BME280;62304;47.662;18.324;2023-07-24T04:48:07;99868.75;;;23.00;86.71
73952;BME280;62304;47.662;18.324;2023-07-24T04:51:10;99874.78;;;23.11;86.32
73952;BME280;62304;47.662;18.324;2023-07-24T04:54:13;99870.09;;;23.17;86.12
73952;BME280;62304;47.662;18.324;2023-07-24T04:57:16;99865.88;;;23.21;86.00
73952;BME280;62304;47.662;18.324;2023-07-24T05:00:19;99874.25;;;23.34;85.22
73952;BME280;62304;47.662;18.324;2023-07-24T05:03:22;99873.66;;;23.48;84.92
73952;BME280;62304;47.662;18.324;2023-07-24T05:06:26;99870.22;;;23.62;84.42
73952;BME280;62304;47.662;18.324;2023-07-24T05:09:29;99879.03;;;23.73;83.85
73952;BME280;62304;47.662;18.324;2023-07-24T05:12:32;99868.97;;;23.81;83.53
73952;BME280;62304;47.662;18.324;2023-07-24T05:15:35;99860.19;;;23.88;83.11
73952;BME280;62304;47.662;18.324;2023-07-24T05:18:39;99863.97;;;23.94;82.71
73952;BME280;62304;47.662;18.324;2023-07-24T05:21:42;99863.97;;;24.03;81.97
73952;BME280;62304;47.662;18.324;2023-07-24T05:24:45;99865.22;;;24.11;81.54
73952;BME280;62304;47.662;18.324;2023-07-24T05:27:48;99868.03;;;24.29;81.18
73952;BME280;62304;47.662;18.324;2023-07-24T05:30:51;99861.38;;;24.50;80.27
73952;BME280;62304;47.662;18.324;2023-07-24T05:33:54;99865.13;;;24.74;78.87
73952;BME280;62304;47.662;18.324;2023-07-24T05:36:57;99866.91;;;25.04;76.94
73952;BME280;62304;47.662;18.324;2023-07-24T05:40:00;99860.03;;;25.19;76.30
73952;BME280;62304;47.662;18.324;2023-07-24T05:43:03;99861.63;;;25.53;74.92
73952;BME280;62304;47.662;18.324;2023-07-24T05:46:09;99861.53;;;25.62;74.66
73952;BME280;62304;47.662;18.324;2023-07-24T05:49:13;99863.19;;;25.77;73.70
73952;BME280;62304;47.662;18.324;2023-07-24T05:52:15;99858.25;;;26.01;72.51
73952;BME280;62304;47.662;18.324;2023-07-24T05:55:19;99840.47;;;26.44;70.77
73952;BME280;62304;47.662;18.324;2023-07-24T05:58:22;99846.50;;;26.75;69.87
73952;BME280;62304;47.662;18.324;2023-07-24T06:01:25;99849.06;;;27.08;68.09
73952;BME280;62304;47.662;18.324;2023-07-24T06:04:29;99851.00;;;27.31;67.35
73952;BME280;62304;47.662;18.324;2023-07-24T06:07:32;99850.03;;;27.34;66.37
73952;BME280;62304;47.662;18.324;2023-07-24T06:10:35;99847.16;;;27.54;66.20
73952;BME280;62304;47.662;18.324;2023-07-24T06:13:38;99837.38;;;27.55;66.25
73952;BME280;62304;47.662;18.324;2023-07-24T06:16:41;99835.84;;;27.39;66.05
73952;BME280;62304;47.662;18.324;2023-07-24T06:19:44;99840.50;;;27.57;65.26
73952;BME280;62304;47.662;18.324;2023-07-24T06:22:48;99837.25;;;27.84;64.74
73952;BME280;62304;47.662;18.324;2023-07-24T06:25:51;99840.63;;;28.08;63.71
73952;BME280;62304;47.662;18.324;2023-07-24T06:28:55;99847.38;;;28.30;62.02
73952;BME280;62304;47.662;18.324;2023-07-24T06:31:58;99844.12;;;28.68;61.78
73952;BME280;62304;47.662;18.324;2023-07-24T06:35:02;99836.41;;;28.74;60.18
73952;BME280;62304;47.662;18.324;2023-07-24T06:38:05;99836.06;;;28.67;60.69
73952;BME280;62304;47.662;18.324;2023-07-24T06:41:11;99828.94;;;28.51;60.47
73952;BME280;62304;47.662;18.324;2023-07-24T06:44:14;99833.25;;;28.41;59.58
73952;BME280;62304;47.662;18.324;2023-07-24T06:47:17;99834.00;;;28.42;60.48
73952;BME280;62304;47.662;18.324;2023-07-24T06:50:20;99828.81;;;28.66;60.36
73952;BME280;62304;47.662;18.324;2023-07-24T06:53:24;99827.34;;;28.81;59.46
73952;BME280;62304;47.662;18.324;2023-07-24T06:56:27;99823.91;;;29.03;57.88
73952;BME280;62304;47.662;18.324;2023-07-24T06:59:31;99827.50;;;28.98;58.46
73952;BME280;62304;47.662;18.324;2023-07-24T07:02:34;99819.63;;;28.87;58.66
73952;BME280;62304;47.662;18.324;2023-07-24T07:05:38;99829.25;;;29.21;56.11
73952;BME280;62304;47.662;18.324;2023-07-24T07:08:41;99825.72;;;29.37;56.85
73952;BME280;62304;47.662;18.324;2023-07-24T07:11:44;99816.41;;;29.53;56.40
73952;BME280;62304;47.662;18.324;2023-07-24T07:14:48;99807.12;;;29.58;55.75
73952;BME280;62304;47.662;18.324;2023-07-24T07:17:51;99810.63;;;29.89;54.39
73952;BME280;62304;47.662;18.324;2023-07-24T07:20:54;99801.34;;;30.11;54.76
73952;BME280;62304;47.662;18.324;2023-07-24T07:23:58;99802.69;;;30.32;55.71
73952;BME280;62304;47.662;18.324;2023-07-24T07:27:01;99804.81;;;30.48;52.65
73952;BME280;62304;47.662;18.324;2023-07-24T07:30:05;99804.75;;;30.15;52.43
73952;BME280;62304;47.662;18.324;2023-07-24T07:33:09;99800.53;;;30.05;53.50
73952;BME280;62304;47.662;18.324;2023-07-24T07:36:12;99799.31;;;30.28;53.33
73952;BME280;62304;47.662;18.324;2023-07-24T07:39:15;99794.94;;;30.65;52.77
73952;BME280;62304;47.662;18.324;2023-07-24T07:42:18;99793.09;;;30.68;52.86
73952;BME280;62304;47.662;18.324;2023-07-24T07:45:40;99797.25;;;31.00;51.94
73952;BME280;62304;47.662;18.324;2023-07-24T07:48:43;99786.56;;;30.95;51.69
73952;BME280;62304;47.662;18.324;2023-07-24T07:51:46;99776.69;;;30.74;51.37
73952;BME280;62304;47.662;18.324;2023-07-24T07:54:49;99772.53;;;30.97;52.01
73952;BME280;62304;47.662;18.324;2023-07-24T07:57:52;99783.44;;;31.26;51.31
73952;BME280;62304;47.662;18.324;2023-07-24T08:00:55;99789.69;;;31.30;51.53
73952;BME280;62304;47.662;18.324;2023-07-24T08:03:59;99778.47;;;31.04;51.25
73952;BME280;62304;47.662;18.324;2023-07-24T08:07:02;99783.22;;;30.74;49.89
73952;BME280;62304;47.662;18.324;2023-07-24T08:10:05;99767.59;;;30.59;50.20
73952;BME280;62304;47.662;18.324;2023-07-24T08:13:09;99768.62;;;30.56;50.47
73952;BME280;62304;47.662;18.324;2023-07-24T08:16:15;99768.41;;;30.65;50.51
73952;BME280;62304;47.662;18.324;2023-07-24T08:19:22;99775.16;;;30.73;49.60
73952;BME280;62304;47.662;18.324;2023-07-24T08:22:25;99772.00;;;30.54;50.20
73952;BME280;62304;47.662;18.324;2023-07-24T08:25:28;99769.94;;;30.77;51.16
73952;BME280;62304;47.662;18.324;2023-07-24T08:28:31;99766.22;;;31.26;51.04
73952;BME280;62304;47.662;18.324;2023-07-24T08:31:34;99765.03;;;31.62;49.65
73952;BME280;62304;47.662;18.324;2023-07-24T08:34:37;99762.44;;;31.64;49.61
73952;BME280;62304;47.662;18.324;2023-07-24T08:37:43;99754.84;;;32.18;48.13
73952;BME280;62304;47.662;18.324;2023-07-24T08:40:46;99745.69;;;32.25;48.86
73952;BME280;62304;47.662;18.324;2023-07-24T08:43:49;99728.97;;;31.88;49.52
73952;BME280;62304;47.662;18.324;2023-07-24T08:46:55;99733.34;;;32.35;48.29
73952;BME280;62304;47.662;18.324;2023-07-24T08:49:58;99736.81;;;32.58;48.20
73952;BME280;62304;47.662;18.324;2023-07-24T08:53:02;99736.00;;;32.28;48.81
73952;BME280;62304;47.662;18.324;2023-07-24T08:56:07;99738.91;;;32.17;49.36
73952;BME280;62304;47.662;18.324;2023-07-24T08:59:11;99739.81;;;32.71;49.73
73952;BME280;62304;47.662;18.324;2023-07-24T09:02:14;99735.25;;;32.57;47.80
73952;BME280;62304;47.662;18.324;2023-07-24T09:05:18;99736.13;;;32.06;48.41
73952;BME280;62304;47.662;18.324;2023-07-24T09:08:41;99730.97;;;31.99;48.78
73952;BME280;62304;47.662;18.324;2023-07-24T09:11:49;99734.25;;;32.49;49.09
73952;BME280;62304;47.662;18.324;2023-07-24T09:15:05;99727.94;;;33.33;49.29
73952;BME280;62304;47.662;18.324;2023-07-24T09:18:10;99727.03;;;33.44;46.10
73952;BME280;62304;47.662;18.324;2023-07-24T09:21:14;99723.44;;;33.38;45.22
73952;BME280;62304;47.662;18.324;2023-07-24T09:24:17;99720.81;;;33.16;46.15
73952;BME280;62304;47.662;18.324;2023-07-24T09:27:20;99721.72;;;33.29;46.65
73952;BME280;62304;47.662;18.324;2023-07-24T09:30:24;99702.53;;;33.13;45.47
73952;BME280;62304;47.662;18.324;2023-07-24T09:33:38;99704.72;;;33.68;44.75
73952;BME280;62304;47.662;18.324;2023-07-24T09:36:42;99709.19;;;33.88;44.69
73952;BME280;62304;47.662;18.324;2023-07-24T09:39:46;99702.09;;;33.52;44.64
73952;BME280;62304;47.662;18.324;2023-07-24T09:42:49;99692.62;;;33.94;43.82
73952;BME280;62304;47.662;18.324;2023-07-24T09:46:12;99691.00;;;33.80;43.42
73952;BME280;62304;47.662;18.324;2023-07-24T09:49:16;99685.47;;;33.82;42.97
73952;BME280;62304;47.662;18.324;2023-07-24T09:52:19;99686.75;;;34.18;42.50
73952;BME280;62304;47.662;18.324;2023-07-24T09:55:27;99671.63;;;33.62;43.16
73952;BME280;62304;47.662;18.324;2023-07-24T09:58:35;99671.09;;;33.82;42.83
73952;BME280;62304;47.662;18.324;2023-07-24T10:01:39;99655.50;;;34.40;42.00
73952;BME280;62304;47.662;18.324;2023-07-24T10:04:44;99654.47;;;34.82;41.45
73952;BME280;62304;47.662;18.324;2023-07-24T10:07:48;99643.41;;;34.42;41.03
73952;BME280;62304;47.662;18.324;2023-07-24T10:10:51;99650.91;;;34.32;42.01
73952;BME280;62304;47.662;18.324;2023-07-24T10:13:56;99635.84;;;34.96;40.17
73952;BME280;62304;47.662;18.324;2023-07-24T10:16:59;99639.84;;;35.06;36.89
73952;BME280;62304;47.662;18.324;2023-07-24T10:20:07;99627.19;;;34.70;37.90
73952;BME280;62304;47.662;18.324;2023-07-24T10:23:16;99625.41;;;34.23;38.49
73952;BME280;62304;47.662;18.324;2023-07-24T10:26:28;99624.16;;;34.63;38.62
73952;BME280;62304;47.662;18.324;2023-07-24T10:29:34;99625.94;;;34.53;39.06
73952;BME280;62304;47.662;18.324;2023-07-24T10:32:48;99615.84;;;34.72;39.17
73952;BME280;62304;47.662;18.324;2023-07-24T10:36:08;99603.03;;;34.86;39.10
73952;BME280;62304;47.662;18.324;2023-07-24T10:39:14;99612.66;;;35.02;39.42
73952;BME280;62304;47.662;18.324;2023-07-24T10:42:22;99610.34;;;35.13;37.40
73952;BME280;62304;47.662;18.324;2023-07-24T10:45:25;99598.31;;;35.69;36.57
73952;BME280;62304;47.662;18.324;2023-07-24T10:48:29;99586.03;;;35.68;36.73
73952;BME280;62304;47.662;18.324;2023-07-24T10:51:32;99581.06;;;35.56;36.02
73952;BME280;62304;47.662;18.324;2023-07-24T10:54:36;99574.72;;;35.24;36.03
73952;BME280;62304;47.662;18.324;2023-07-24T10:57:39;99578.31;;;35.04;36.99
73952;BME280;62304;47.662;18.324;2023-07-24T11:00:43;99586.94;;;35.17;37.15
73952;BME280;62304;47.662;18.324;2023-07-24T11:03:48;99576.03;;;35.23;39.15
73952;BME280;62304;47.662;18.324;2023-07-24T11:06:53;99549.16;;;35.41;37.67
73952;BME280;62304;47.662;18.324;2023-07-24T11:09:55;99547.38;;;36.12;36.43
73952;BME280;62304;47.662;18.324;2023-07-24T11:12:59;99547.41;;;35.92;35.75
73952;BME280;62304;47.662;18.324;2023-07-24T11:16:06;99537.78;;;35.89;35.79
73952;BME280;62304;47.662;18.324;2023-07-24T11:19:12;99530.91;;;36.00;35.29
73952;BME280;62304;47.662;18.324;2023-07-24T11:22:15;99530.91;;;36.00;35.09
73952;BME280;62304;47.662;18.324;2023-07-24T11:25:18;99529.56;;;35.60;34.53
73952;BME280;62304;47.662;18.324;2023-07-24T11:28:21;99511.56;;;35.33;34.66
73952;BME280;62304;47.662;18.324;2023-07-24T11:31:25;99505.87;;;35.41;34.89
73952;BME280;62304;47.662;18.324;2023-07-24T11:34:28;99499.00;;;35.64;34.89
73952;BME280;62304;47.662;18.324;2023-07-24T11:37:33;99497.47;;;35.63;33.47
73952;BME280;62304;47.662;18.324;2023-07-24T11:40:42;99499.81;;;35.65;33.64
73952;BME280;62304;47.662;18.324;2023-07-24T11:43:50;99479.12;;;35.74;33.17
73952;BME280;62304;47.662;18.324;2023-07-24T11:47:03;99475.03;;;35.28;33.39
73952;BME280;62304;47.662;18.324;2023-07-24T11:50:07;99485.50;;;35.39;34.06
73952;BME280;62304;47.662;18.324;2023-07-24T11:56:29;99462.72;;;35.15;33.58
73952;BME280;62304;47.662;18.324;2023-07-24T11:59:37;99456.25;;;35.22;34.01
73952;BME280;62304;47.662;18.324;2023-07-24T12:02:42;99455.16;;;35.25;34.06
73952;BME280;62304;47.662;18.324;2023-07-24T12:05:46;99450.16;;;34.92;34.38
73952;BME280;62304;47.662;18.324;2023-07-24T12:09:02;99454.63;;;34.67;34.89
73952;BME280;62304;47.662;18.324;2023-07-24T12:12:08;99450.97;;;34.66;34.56
73952;BME280;62304;47.662;18.324;2023-07-24T12:15:17;99447.56;;;33.90;35.97
73952;BME280;62304;47.662;18.324;2023-07-24T12:18:23;99432.22;;;34.86;35.13
73952;BME280;62304;47.662;18.324;2023-07-24T12:21:26;99422.53;;;35.30;33.50
73952;BME280;62304;47.662;18.324;2023-07-24T12:24:31;99415.13;;;35.42;32.90
73952;BME280;62304;47.662;18.324;2023-07-24T12:27:34;99418.53;;;34.99;34.36
73952;BME280;62304;47.662;18.324;2023-07-24T12:30:38;99424.84;;;35.31;34.88
73952;BME280;62304;47.662;18.324;2023-07-24T12:33:41;99424.19;;;35.05;34.08
73952;BME280;62304;47.662;18.324;2023-07-24T12:36:45;99414.75;;;34.58;35.76
73952;BME280;62304;47.662;18.324;2023-07-24T12:39:50;99413.94;;;34.70;35.77
73952;BME280;62304;47.662;18.324;2023-07-24T12:42:53;99402.53;;;34.78;34.81
73952;BME280;62304;47.662;18.324;2023-07-24T12:45:57;99400.16;;;34.89;35.29
73952;BME280;62304;47.662;18.324;2023-07-24T12:49:00;99395.75;;;35.09;34.95
73952;BME280;62304;47.662;18.324;2023-07-24T12:52:03;99397.22;;;34.69;35.28
73952;BME280;62304;47.662;18.324;2023-07-24T12:55:07;99389.31;;;34.49;35.57
73952;BME280;62304;47.662;18.324;2023-07-24T12:58:10;99365.72;;;34.37;36.01
73952;BME280;62304;47.662;18.324;2023-07-24T13:01:14;99389.25;;;34.62;36.08
73952;BME280;62304;47.662;18.324;2023-07-24T13:04:19;99374.16;;;34.69;36.35
73952;BME280;62304;47.662;18.324;2023-07-24T13:07:22;99375.72;;;34.70;36.29
73952;BME280;62304;47.662;18.324;2023-07-24T13:10:25;99363.53;;;34.77;36.29
73952;BME280;62304;47.662;18.324;2023-07-24T13:13:28;99371.50;;;34.71;36.13
73952;BME280;62304;47.662;18.324;2023-07-24T13:16:31;99357.47;;;34.54;35.98
73952;BME280;62304;47.662;18.324;2023-07-24T13:19:35;99351.53;;;34.52;36.30
73952;BME280;62304;47.662;18.324;2023-07-24T13:22:38;99346.66;;;34.47;36.34
73952;BME280;62304;47.662;18.324;2023-07-24T13:25:41;99337.47;;;34.49;36.27
73952;BME280;62304;47.662;18.324;2023-07-24T13:28:44;99337.25;;;34.67;36.10
73952;BME280;62304;47.662;18.324;2023-07-24T13:31:50;99320.09;;;34.41;36.31
73952;BME280;62304;47.662;18.324;2023-07-24T13:34:53;99310.62;;;34.07;37.09
73952;BME280;62304;47.662;18.324;2023-07-24T13:37:57;99316.38;;;33.55;37.34
73952;BME280;62304;47.662;18.324;2023-07-24T13:41:01;99306.47;;;33.25;38.23
73952;BME280;62304;47.662;18.324;2023-07-24T13:44:05;99301.84;;;32.90;37.72
73952;BME280;62304;47.662;18.324;2023-07-24T13:47:09;99299.78;;;32.72;37.78
73952;BME280;62304;47.662;18.324;2023-07-24T13:50:12;99296.41;;;32.55;38.09
73952;BME280;62304;47.662;18.324;2023-07-24T13:53:15;99289.19;;;32.49;38.12
73952;BME280;62304;47.662;18.324;2023-07-24T13:56:19;99275.81;;;32.38;38.30
73952;BME280;62304;47.662;18.324;2023-07-24T13:59:25;99282.78;;;32.43;37.66
73952;BME280;62304;47.662;18.324;2023-07-24T14:02:29;99277.03;;;32.43;37.51
73952;BME280;62304;47.662;18.324;2023-07-24T14:05:36;99273.72;;;32.70;37.27
73952;BME280;62304;47.662;18.324;2023-07-24T14:08:40;99279.78;;;32.67;36.87
73952;BME280;62304;47.662;18.324;2023-07-24T14:11:44;99266.84;;;33.05;36.65
73952;BME280;62304;47.662;18.324;2023-07-24T14:14:46;99274.50;;;33.15;36.06
73952;BME280;62304;47.662;18.324;2023-07-24T14:17:50;99268.25;;;33.30;36.01
73952;BME280;62304;47.662;18.324;2023-07-24T14:20:52;99258.75;;;33.48;36.35
73952;BME280;62304;47.662;18.324;2023-07-24T14:23:58;99249.13;;;33.58;35.49
73952;BME280;62304;47.662;18.324;2023-07-24T14:27:03;99248.34;;;33.58;36.07
73952;BME280;62304;47.662;18.324;2023-07-24T14:30:08;99248.34;;;33.32;36.76
73952;BME280;62304;47.662;18.324;2023-07-24T14:33:13;99234.53;;;33.30;36.83
73952;BME280;62304;47.662;18.324;2023-07-24T14:36:17;99240.69;;;33.21;36.13
73952;BME280;62304;47.662;18.324;2023-07-24T14:39:20;99234.28;;;33.15;36.49
73952;BME280;62304;47.662;18.324;2023-07-24T14:42:24;99233.41;;;33.20;35.75
73952;BME280;62304;47.662;18.324;2023-07-24T14:45:27;99222.31;;;33.11;35.50
73952;BME280;62304;47.662;18.324;2023-07-24T14:48:31;99228.81;;;32.99;35.77
73952;BME280;62304;47.662;18.324;2023-07-24T14:51:37;99214.03;;;32.95;36.13
73952;BME280;62304;47.662;18.324;2023-07-24T14:54:41;99212.12;;;32.84;36.45
73952;BME280;62304;47.662;18.324;2023-07-24T14:57:45;99217.75;;;32.77;35.97
73952;BME280;62304;47.662;18.324;2023-07-24T15:00:48;99214.63;;;32.75;37.38
73952;BME280;62304;47.662;18.324;2023-07-24T15:03:51;99203.53;;;32.66;36.68
73952;BME280;62304;47.662;18.324;2023-07-24T15:06:55;99199.31;;;32.54;36.77
73952;BME280;62304;47.662;18.324;2023-07-24T15:10:00;99198.66;;;32.48;37.07
73952;BME280;62304;47.662;18.324;2023-07-24T15:13:04;99189.81;;;32.46;37.72
73952;BME280;62304;47.662;18.324;2023-07-24T15:16:07;99189.94;;;32.53;37.76
73952;BME280;62304;47.662;18.324;2023-07-24T15:19:12;99193.31;;;32.39;38.02
73952;BME280;62304;47.662;18.324;2023-07-24T15:22:16;99182.09;;;32.22;38.41
73952;BME280;62304;47.662;18.324;2023-07-24T15:25:20;99177.34;;;31.93;38.19
73952;BME280;62304;47.662;18.324;2023-07-24T15:28:26;99192.84;;;31.85;38.75
73952;BME280;62304;47.662;18.324;2023-07-24T15:31:30;99178.91;;;32.07;38.99
73952;BME280;62304;47.662;18.324;2023-07-24T15:34:38;99162.31;;;32.37;38.20
73952;BME280;62304;47.662;18.324;2023-07-24T15:37:42;99147.75;;;32.48;38.26
73952;BME280;62304;47.662;18.324;2023-07-24T15:40:46;99166.78;;;32.33;38.46
73952;BME280;62304;47.662;18.324;2023-07-24T15:43:49;99160.38;;;32.27;38.95
73952;BME280;62304;47.662;18.324;2023-07-24T15:46:53;99163.06;;;31.88;39.25
73952;BME280;62304;47.662;18.324;2023-07-24T15:49:56;99167.75;;;31.67;39.77
73952;BME280;62304;47.662;18.324;2023-07-24T15:53:00;99152.81;;;31.55;40.05
73952;BME280;62304;47.662;18.324;2023-07-24T15:56:03;99162.09;;;31.43;39.94
73952;BME280;62304;47.662;18.324;2023-07-24T15:59:08;99158.84;;;31.33;40.63
73952;BME280;62304;47.662;18.324;2023-07-24T16:02:15;99154.44;;;31.32;41.36
73952;BME280;62304;47.662;18.324;2023-07-24T16:05:19;99160.53;;;31.23;41.25
73952;BME280;62304;47.662;18.324;2023-07-24T16:08:23;99167.38;;;31.15;41.50
73952;BME280;62304;47.662;18.324;2023-07-24T16:11:26;99168.75;;;31.08;41.40